<?xml version="1.0" encoding="UTF-8" standalone="no" ?>
<gpx xmlns="http://www.topografix.com/GPX/1/1" xmlns:xsi="http://www.w3.org/2001/XMLSchema-instance" xsi:schemaLocation="http://www.topografix.com/GPX/1/1 http://www.topografix.com/GPX/1/1/gpx.xsd" version="1.1" creator="VisuGPX - https://www.visugpx.com">
  <metadata>
    <name>16oct Jouars</name>
    <desc><![CDATA[randonnée Stephanie Jouars 16 octobre ]]></desc>
  </metadata>
  <trk>
    <name><![CDATA[OR-6345285--Neauphle-le-Vieux:Autour de Pontchartrain]]></name>
    <trkseg>
      <trkpt lat="48.81517" lon="1.86467">
        <ele>76</ele>
        <time>2016-10-16T08:32:20Z</time>
      </trkpt>
      <trkpt lat="48.81514" lon="1.86399">
        <ele>78</ele>
        <time>2016-10-16T08:34:20Z</time>
      </trkpt>
      <trkpt lat="48.81427" lon="1.86373">
        <ele>71</ele>
        <time>2016-10-16T08:36:20Z</time>
      </trkpt>
      <trkpt lat="48.81387" lon="1.86189">
        <ele>66</ele>
        <time>2016-10-16T08:38:20Z</time>
      </trkpt>
      <trkpt lat="48.81059" lon="1.8591">
        <ele>68</ele>
        <time>2016-10-16T08:40:20Z</time>
      </trkpt>
      <trkpt lat="48.80477" lon="1.85613">
        <ele>72</ele>
        <time>2016-10-16T08:42:20Z</time>
      </trkpt>
      <trkpt lat="48.80296" lon="1.8542">
        <ele>72</ele>
        <time>2016-10-16T08:44:20Z</time>
      </trkpt>
      <trkpt lat="48.80189" lon="1.85086">
        <ele>77</ele>
        <time>2016-10-16T08:46:20Z</time>
      </trkpt>
      <trkpt lat="48.80124" lon="1.8482">
        <ele>78</ele>
        <time>2016-10-16T08:48:20Z</time>
      </trkpt>
      <trkpt lat="48.79943" lon="1.84588">
        <ele>76</ele>
        <time>2016-10-16T08:50:20Z</time>
      </trkpt>
      <trkpt lat="48.79999" lon="1.84232">
        <ele>79</ele>
        <time>2016-10-16T08:52:20Z</time>
      </trkpt>
      <trkpt lat="48.79406" lon="1.84665">
        <ele>78</ele>
        <time>2016-10-16T08:54:20Z</time>
      </trkpt>
      <trkpt lat="48.79338" lon="1.84648">
        <ele>80</ele>
        <time>2016-10-16T08:56:20Z</time>
      </trkpt>
      <trkpt lat="48.79129" lon="1.84811">
        <ele>76</ele>
        <time>2016-10-16T08:58:20Z</time>
      </trkpt>
      <trkpt lat="48.79066" lon="1.84957">
        <ele>78</ele>
        <time>2016-10-16T09:00:20Z</time>
      </trkpt>
      <trkpt lat="48.79061" lon="1.85026">
        <ele>78</ele>
        <time>2016-10-16T09:02:20Z</time>
      </trkpt>
      <trkpt lat="48.78993" lon="1.85094">
        <ele>79</ele>
        <time>2016-10-16T09:04:20Z</time>
      </trkpt>
      <trkpt lat="48.78973" lon="1.85262">
        <ele>79</ele>
        <time>2016-10-16T09:06:20Z</time>
      </trkpt>
      <trkpt lat="48.78891" lon="1.85369">
        <ele>83</ele>
        <time>2016-10-16T09:08:20Z</time>
      </trkpt>
      <trkpt lat="48.78769" lon="1.85897">
        <ele>87</ele>
        <time>2016-10-16T09:10:20Z</time>
      </trkpt>
      <trkpt lat="48.78758" lon="1.85987">
        <ele>87</ele>
        <time>2016-10-16T09:12:20Z</time>
      </trkpt>
      <trkpt lat="48.78518" lon="1.86549">
        <ele>100</ele>
        <time>2016-10-16T09:14:20Z</time>
      </trkpt>
      <trkpt lat="48.78419" lon="1.86704">
        <ele>103</ele>
        <time>2016-10-16T09:16:20Z</time>
      </trkpt>
      <trkpt lat="48.78303" lon="1.86665">
        <ele>110</ele>
        <time>2016-10-16T09:18:20Z</time>
      </trkpt>
      <trkpt lat="48.78221" lon="1.86545">
        <ele>112</ele>
        <time>2016-10-16T09:20:20Z</time>
      </trkpt>
      <trkpt lat="48.78085" lon="1.8651">
        <ele>115</ele>
        <time>2016-10-16T09:22:20Z</time>
      </trkpt>
      <trkpt lat="48.77876" lon="1.8615">
        <ele>125</ele>
        <time>2016-10-16T09:24:20Z</time>
      </trkpt>
      <trkpt lat="48.77791" lon="1.86103">
        <ele>133</ele>
        <time>2016-10-16T09:26:20Z</time>
      </trkpt>
      <trkpt lat="48.77641" lon="1.86107">
        <ele>149</ele>
        <time>2016-10-16T09:28:20Z</time>
      </trkpt>
      <trkpt lat="48.77494" lon="1.8627">
        <ele>168</ele>
        <time>2016-10-16T09:30:20Z</time>
      </trkpt>
      <trkpt lat="48.77375" lon="1.86304">
        <ele>179</ele>
        <time>2016-10-16T09:32:20Z</time>
      </trkpt>
      <trkpt lat="48.77005" lon="1.86317">
        <ele>179</ele>
        <time>2016-10-16T09:34:20Z</time>
      </trkpt>
      <trkpt lat="48.76733" lon="1.86412">
        <ele>176</ele>
        <time>2016-10-16T09:36:20Z</time>
      </trkpt>
      <trkpt lat="48.76617" lon="1.86613">
        <ele>168</ele>
        <time>2016-10-16T09:38:20Z</time>
      </trkpt>
      <trkpt lat="48.76609" lon="1.86776">
        <ele>160</ele>
        <time>2016-10-16T09:40:20Z</time>
      </trkpt>
      <trkpt lat="48.76555" lon="1.86901">
        <ele>155</ele>
        <time>2016-10-16T09:42:20Z</time>
      </trkpt>
      <trkpt lat="48.76414" lon="1.86759">
        <ele>143</ele>
        <time>2016-10-16T09:44:20Z</time>
      </trkpt>
      <trkpt lat="48.76298" lon="1.86759">
        <ele>140</ele>
        <time>2016-10-16T09:46:20Z</time>
      </trkpt>
      <trkpt lat="48.76179" lon="1.86712">
        <ele>133</ele>
        <time>2016-10-16T09:48:20Z</time>
      </trkpt>
      <trkpt lat="48.76233" lon="1.86884">
        <ele>161</ele>
        <time>2016-10-16T09:50:20Z</time>
      </trkpt>
      <trkpt lat="48.76275" lon="1.87158">
        <ele>174</ele>
        <time>2016-10-16T09:52:20Z</time>
      </trkpt>
      <trkpt lat="48.76332" lon="1.87223">
        <ele>173</ele>
        <time>2016-10-16T09:54:20Z</time>
      </trkpt>
      <trkpt lat="48.76295" lon="1.87476">
        <ele>179</ele>
        <time>2016-10-16T09:56:20Z</time>
      </trkpt>
      <trkpt lat="48.7636" lon="1.87575">
        <ele>180</ele>
        <time>2016-10-16T09:58:20Z</time>
      </trkpt>
      <trkpt lat="48.76176" lon="1.87618">
        <ele>172</ele>
        <time>2016-10-16T10:00:20Z</time>
      </trkpt>
      <trkpt lat="48.76179" lon="1.87708">
        <ele>168</ele>
        <time>2016-10-16T10:02:20Z</time>
      </trkpt>
      <trkpt lat="48.76151" lon="1.87755">
        <ele>163</ele>
        <time>2016-10-16T10:04:20Z</time>
      </trkpt>
      <trkpt lat="48.76032" lon="1.87682">
        <ele>146</ele>
        <time>2016-10-16T10:06:20Z</time>
      </trkpt>
      <trkpt lat="48.75913" lon="1.87716">
        <ele>131</ele>
        <time>2016-10-16T10:08:20Z</time>
      </trkpt>
      <trkpt lat="48.75582" lon="1.88">
        <ele>157</ele>
        <time>2016-10-16T10:10:20Z</time>
      </trkpt>
      <trkpt lat="48.75619" lon="1.88141">
        <ele>162</ele>
        <time>2016-10-16T10:12:20Z</time>
      </trkpt>
      <trkpt lat="48.75667" lon="1.88145">
        <ele>158</ele>
        <time>2016-10-16T10:14:20Z</time>
      </trkpt>
      <trkpt lat="48.75689" lon="1.88253">
        <ele>156</ele>
        <time>2016-10-16T10:16:20Z</time>
      </trkpt>
      <trkpt lat="48.75593" lon="1.88382">
        <ele>162</ele>
        <time>2016-10-16T10:18:20Z</time>
      </trkpt>
      <trkpt lat="48.75602" lon="1.88472">
        <ele>163</ele>
        <time>2016-10-16T10:20:20Z</time>
      </trkpt>
      <trkpt lat="48.75627" lon="1.88566">
        <ele>157</ele>
        <time>2016-10-16T10:22:20Z</time>
      </trkpt>
      <trkpt lat="48.75641" lon="1.88793">
        <ele>148</ele>
        <time>2016-10-16T10:24:20Z</time>
      </trkpt>
      <trkpt lat="48.75675" lon="1.88871">
        <ele>136</ele>
        <time>2016-10-16T10:26:20Z</time>
      </trkpt>
      <trkpt lat="48.75641" lon="1.88948">
        <ele>136</ele>
        <time>2016-10-16T10:28:20Z</time>
      </trkpt>
      <trkpt lat="48.75497" lon="1.88999">
        <ele>138</ele>
        <time>2016-10-16T10:30:20Z</time>
      </trkpt>
      <trkpt lat="48.75474" lon="1.89278">
        <ele>128</ele>
        <time>2016-10-16T10:32:20Z</time>
      </trkpt>
      <trkpt lat="48.75573" lon="1.8939">
        <ele>120</ele>
        <time>2016-10-16T10:34:20Z</time>
      </trkpt>
      <trkpt lat="48.75862" lon="1.89446">
        <ele>126</ele>
        <time>2016-10-16T10:36:20Z</time>
      </trkpt>
      <trkpt lat="48.7593" lon="1.89403">
        <ele>121</ele>
        <time>2016-10-16T10:38:20Z</time>
      </trkpt>
      <trkpt lat="48.76069" lon="1.89394">
        <ele>120</ele>
        <time>2016-10-16T10:40:20Z</time>
      </trkpt>
      <trkpt lat="48.76145" lon="1.89339">
        <ele>113</ele>
        <time>2016-10-16T10:42:20Z</time>
      </trkpt>
      <trkpt lat="48.76238" lon="1.89334">
        <ele>112</ele>
        <time>2016-10-16T10:44:20Z</time>
      </trkpt>
      <trkpt lat="48.76275" lon="1.89261">
        <ele>108</ele>
        <time>2016-10-16T10:46:20Z</time>
      </trkpt>
      <trkpt lat="48.76544" lon="1.89394">
        <ele>106</ele>
        <time>2016-10-16T10:48:20Z</time>
      </trkpt>
      <trkpt lat="48.76589" lon="1.89665">
        <ele>116</ele>
        <time>2016-10-16T10:50:20Z</time>
      </trkpt>
      <trkpt lat="48.76518" lon="1.90274">
        <ele>160</ele>
        <time>2016-10-16T10:52:20Z</time>
      </trkpt>
      <trkpt lat="48.76538" lon="1.90446">
        <ele>172</ele>
        <time>2016-10-16T10:54:20Z</time>
      </trkpt>
      <trkpt lat="48.76586" lon="1.90437">
        <ele>174</ele>
        <time>2016-10-16T10:56:20Z</time>
      </trkpt>
      <trkpt lat="48.76651" lon="1.9048">
        <ele>173</ele>
        <time>2016-10-16T10:58:20Z</time>
      </trkpt>
      <trkpt lat="48.76787" lon="1.90416">
        <ele>175</ele>
        <time>2016-10-16T11:00:20Z</time>
      </trkpt>
      <trkpt lat="48.7705" lon="1.90433">
        <ele>174</ele>
        <time>2016-10-16T11:02:20Z</time>
      </trkpt>
      <trkpt lat="48.77225" lon="1.9045">
        <ele>170</ele>
        <time>2016-10-16T11:04:20Z</time>
      </trkpt>
      <trkpt lat="48.77373" lon="1.90368">
        <ele>154</ele>
        <time>2016-10-16T11:06:20Z</time>
      </trkpt>
      <trkpt lat="48.77463" lon="1.90338">
        <ele>140</ele>
        <time>2016-10-16T11:08:20Z</time>
      </trkpt>
      <trkpt lat="48.77619" lon="1.90416">
        <ele>124</ele>
        <time>2016-10-16T11:10:20Z</time>
      </trkpt>
      <trkpt lat="48.77636" lon="1.90665">
        <ele>119</ele>
        <time>2016-10-16T11:12:20Z</time>
      </trkpt>
      <trkpt lat="48.77746" lon="1.90793">
        <ele>115</ele>
        <time>2016-10-16T11:14:20Z</time>
      </trkpt>
      <trkpt lat="48.77805" lon="1.90802">
        <ele>112</ele>
        <time>2016-10-16T11:16:20Z</time>
      </trkpt>
      <trkpt lat="48.77978" lon="1.90343">
        <ele>108</ele>
        <time>2016-10-16T11:18:20Z</time>
      </trkpt>
      <trkpt lat="48.7808" lon="1.9036">
        <ele>106</ele>
        <time>2016-10-16T11:20:20Z</time>
      </trkpt>
      <trkpt lat="48.7854" lon="1.90931">
        <ele>89</ele>
        <time>2016-10-16T11:22:20Z</time>
      </trkpt>
      <trkpt lat="48.78552" lon="1.89974">
        <ele>108</ele>
        <time>2016-10-16T11:24:20Z</time>
      </trkpt>
      <trkpt lat="48.78866" lon="1.90188">
        <ele>101</ele>
        <time>2016-10-16T11:26:20Z</time>
      </trkpt>
      <trkpt lat="48.78908" lon="1.90085">
        <ele>102</ele>
        <time>2016-10-16T11:28:20Z</time>
      </trkpt>
      <trkpt lat="48.78931" lon="1.89982">
        <ele>102</ele>
        <time>2016-10-16T11:30:20Z</time>
      </trkpt>
      <trkpt lat="48.79855" lon="1.89948">
        <ele>80</ele>
        <time>2016-10-16T11:32:20Z</time>
      </trkpt>
      <trkpt lat="48.79974" lon="1.90411">
        <ele>95</ele>
        <time>2016-10-16T11:34:20Z</time>
      </trkpt>
      <trkpt lat="48.80036" lon="1.9045">
        <ele>101</ele>
        <time>2016-10-16T11:36:20Z</time>
      </trkpt>
      <trkpt lat="48.80098" lon="1.90497">
        <ele>107</ele>
        <time>2016-10-16T11:38:20Z</time>
      </trkpt>
      <trkpt lat="48.8029" lon="1.90832">
        <ele>117</ele>
        <time>2016-10-16T11:40:20Z</time>
      </trkpt>
      <trkpt lat="48.80412" lon="1.90738">
        <ele>139</ele>
        <time>2016-10-16T11:42:20Z</time>
      </trkpt>
      <trkpt lat="48.80483" lon="1.90605">
        <ele>134</ele>
        <time>2016-10-16T11:44:20Z</time>
      </trkpt>
      <trkpt lat="48.80576" lon="1.90695">
        <ele>145</ele>
        <time>2016-10-16T11:46:20Z</time>
      </trkpt>
      <trkpt lat="48.80565" lon="1.90806">
        <ele>159</ele>
        <time>2016-10-16T11:48:20Z</time>
      </trkpt>
      <trkpt lat="48.80647" lon="1.90853">
        <ele>167</ele>
        <time>2016-10-16T11:50:20Z</time>
      </trkpt>
      <trkpt lat="48.80768" lon="1.90849">
        <ele>170</ele>
        <time>2016-10-16T11:52:20Z</time>
      </trkpt>
      <trkpt lat="48.80799" lon="1.90935">
        <ele>174</ele>
        <time>2016-10-16T11:54:20Z</time>
      </trkpt>
      <trkpt lat="48.80921" lon="1.90811">
        <ele>173</ele>
        <time>2016-10-16T11:56:20Z</time>
      </trkpt>
      <trkpt lat="48.80921" lon="1.90738">
        <ele>173</ele>
        <time>2016-10-16T11:58:20Z</time>
      </trkpt>
      <trkpt lat="48.80864" lon="1.90622">
        <ele>162</ele>
        <time>2016-10-16T12:00:20Z</time>
      </trkpt>
      <trkpt lat="48.80833" lon="1.90471">
        <ele>150</ele>
        <time>2016-10-16T12:02:20Z</time>
      </trkpt>
      <trkpt lat="48.80861" lon="1.90326">
        <ele>139</ele>
        <time>2016-10-16T12:04:20Z</time>
      </trkpt>
      <trkpt lat="48.80833" lon="1.90137">
        <ele>119</ele>
        <time>2016-10-16T12:06:20Z</time>
      </trkpt>
      <trkpt lat="48.80935" lon="1.90068">
        <ele>115</ele>
        <time>2016-10-16T12:08:20Z</time>
      </trkpt>
      <trkpt lat="48.80974" lon="1.89982">
        <ele>114</ele>
        <time>2016-10-16T12:10:20Z</time>
      </trkpt>
      <trkpt lat="48.8098" lon="1.89892">
        <ele>113</ele>
        <time>2016-10-16T12:12:20Z</time>
      </trkpt>
      <trkpt lat="48.81079" lon="1.89648">
        <ele>126</ele>
        <time>2016-10-16T12:14:20Z</time>
      </trkpt>
      <trkpt lat="48.81206" lon="1.89617">
        <ele>136</ele>
        <time>2016-10-16T12:16:20Z</time>
      </trkpt>
      <trkpt lat="48.81181" lon="1.89472">
        <ele>128</ele>
        <time>2016-10-16T12:18:20Z</time>
      </trkpt>
      <trkpt lat="48.81257" lon="1.89231">
        <ele>112</ele>
        <time>2016-10-16T12:20:20Z</time>
      </trkpt>
      <trkpt lat="48.81274" lon="1.88854">
        <ele>102</ele>
        <time>2016-10-16T12:22:20Z</time>
      </trkpt>
      <trkpt lat="48.81299" lon="1.886">
        <ele>97</ele>
        <time>2016-10-16T12:24:20Z</time>
      </trkpt>
      <trkpt lat="48.81339" lon="1.88527">
        <ele>98</ele>
        <time>2016-10-16T12:26:20Z</time>
      </trkpt>
      <trkpt lat="48.81336" lon="1.88244">
        <ele>95</ele>
        <time>2016-10-16T12:28:20Z</time>
      </trkpt>
      <trkpt lat="48.81319" lon="1.88085">
        <ele>90</ele>
        <time>2016-10-16T12:30:20Z</time>
      </trkpt>
      <trkpt lat="48.81387" lon="1.87751">
        <ele>73</ele>
        <time>2016-10-16T12:32:20Z</time>
      </trkpt>
      <trkpt lat="48.81424" lon="1.87579">
        <ele>71</ele>
        <time>2016-10-16T12:34:20Z</time>
      </trkpt>
      <trkpt lat="48.81449" lon="1.87253">
        <ele>69</ele>
        <time>2016-10-16T12:36:20Z</time>
      </trkpt>
      <trkpt lat="48.81472" lon="1.87124">
        <ele>66</ele>
        <time>2016-10-16T12:38:20Z</time>
      </trkpt>
      <trkpt lat="48.81613" lon="1.86871">
        <ele>64</ele>
        <time>2016-10-16T12:40:20Z</time>
      </trkpt>
      <trkpt lat="48.81624" lon="1.86759">
        <ele>69</ele>
        <time>2016-10-16T12:42:20Z</time>
      </trkpt>
      <trkpt lat="48.81545" lon="1.86536">
        <ele>75</ele>
        <time>2016-10-16T12:44:20Z</time>
      </trkpt>
    </trkseg>
  </trk>
</gpx>